createdAt,value
2019-04-16T00:00:23.274Z,10.60
2019-04-16T00:02:54.580Z,10.50
2019-04-16T00:05:27.738Z,10.50
2019-04-16T00:08:00.860Z,10.40
2019-04-16T00:10:52.155Z,10.30
2019-04-16T00:13:27.629Z,10.20
2019-04-16T00:15:57.860Z,10.20
2019-04-16T00:18:26.143Z,10.10
2019-04-16T00:21:16.317Z,9.90
2019-04-16T00:24:18.585Z,9.90
2019-04-16T00:26:58.057Z,9.90
2019-04-16T00:29:23.521Z,9.80
2019-04-16T00:32:09.789Z,9.80
2019-04-16T00:34:39.112Z,9.70
2019-04-16T00:37:06.862Z,9.70
2019-04-16T00:39:34.537Z,9.50
2019-04-16T00:42:02.365Z,9.60
2019-04-16T00:44:30.133Z,9.60
2019-04-16T00:46:59.477Z,9.60
2019-04-16T00:49:27.274Z,9.60
2019-04-16T00:51:55.082Z,9.50
2019-04-16T00:54:22.790Z,9.50
2019-04-16T00:56:50.461Z,9.40
2019-04-16T00:59:18.236Z,9.30
2019-04-16T01:01:46.009Z,9.20
2019-04-16T01:04:13.737Z,9.20
2019-04-16T01:06:41.501Z,9.30
2019-04-16T01:09:09.256Z,9.20
2019-04-16T01:11:37.029Z,9.10
2019-04-16T01:14:04.938Z,9.10
2019-04-16T01:29:02.770Z,8.90
2019-04-16T01:31:47.798Z,8.80
2019-04-16T01:34:42.665Z,8.70
2019-04-16T01:37:25.603Z,8.70
2019-04-16T01:39:54.233Z,8.60
2019-04-16T01:42:24.208Z,8.50
2019-04-16T01:44:52.238Z,8.50
2019-04-16T01:47:19.919Z,8.50
2019-04-16T01:49:47.697Z,8.50
2019-04-16T01:52:18.700Z,8.50
2019-04-16T01:54:45.035Z,8.50
2019-04-16T01:57:12.718Z,8.40
2019-04-16T01:59:40.518Z,8.30
2019-04-16T02:02:08.213Z,8.30
2019-04-16T02:04:36.192Z,8.30
2019-04-16T02:07:03.957Z,8.20
2019-04-16T02:09:34.832Z,8.20
2019-04-16T02:12:01.531Z,8.20
2019-04-16T02:14:29.771Z,8.20
2019-04-16T02:16:57.359Z,8.20
2019-04-16T02:19:25.105Z,8.20
2019-04-16T02:21:52.797Z,8.10
2019-04-16T02:24:20.554Z,8.10
2019-04-16T02:26:48.237Z,8.00
2019-04-16T02:29:15.997Z,8.00
2019-04-16T02:31:43.693Z,8.00
2019-04-16T02:34:11.505Z,7.90
2019-04-16T02:36:39.191Z,7.90
2019-04-16T02:39:08.179Z,7.70
2019-04-16T02:41:35.876Z,7.70
2019-04-16T02:44:03.892Z,7.50
2019-04-16T02:46:32.737Z,7.60
2019-04-16T02:49:00.759Z,7.70
2019-04-16T02:52:03.082Z,7.70
2019-04-16T02:54:46.001Z,7.60
2019-04-16T02:57:41.053Z,7.20
2019-04-16T03:00:33.556Z,7.00
2019-04-16T03:03:08.145Z,7.10
2019-04-16T03:05:40.289Z,7.20
2019-04-16T03:08:10.193Z,7.10
2019-04-16T03:10:38.074Z,7.20
2019-04-16T03:13:05.923Z,7.20
2019-04-16T03:15:59.301Z,7.20
2019-04-16T03:18:36.686Z,7.20
2019-04-16T03:21:06.054Z,7.30
2019-04-16T03:23:36.683Z,7.40
2019-04-16T03:26:03.286Z,7.30
2019-04-16T03:28:31.068Z,7.10
2019-04-16T03:30:58.819Z,7.10
2019-04-16T03:33:26.696Z,6.90
2019-04-16T03:35:57.590Z,6.80
2019-04-16T03:38:24.008Z,6.90
2019-04-16T03:40:55.867Z,6.90
2019-04-16T03:43:21.579Z,6.90
2019-04-16T03:45:49.393Z,6.90
2019-04-16T03:48:17.077Z,6.90
2019-04-16T03:50:44.865Z,6.80
2019-04-16T03:53:16.383Z,6.60
2019-04-16T03:55:42.143Z,6.60
2019-04-16T03:58:09.894Z,6.60
2019-04-16T04:00:37.573Z,6.60
2019-04-16T04:03:05.369Z,6.60
2019-04-16T04:05:34.892Z,6.60
2019-04-16T04:08:02.862Z,6.60
2019-04-16T04:10:34.273Z,6.60
2019-04-16T04:13:00.704Z,6.50
2019-04-16T04:15:28.398Z,6.60
2019-04-16T04:17:56.138Z,6.60
2019-04-16T04:20:23.816Z,6.60
2019-04-16T04:22:51.558Z,6.60
2019-04-16T04:25:19.221Z,6.60
2019-04-16T04:27:47.746Z,6.40
2019-04-16T04:30:17.232Z,6.30
2019-04-16T04:32:47.705Z,6.20
2019-04-16T04:35:20.194Z,6.40
2019-04-16T04:37:45.354Z,6.40
2019-04-16T04:40:16.129Z,6.50
2019-04-16T04:42:42.766Z,6.40
2019-04-16T04:45:10.674Z,6.50
2019-04-16T04:47:38.567Z,6.40
2019-04-16T04:50:06.694Z,6.40
2019-04-16T04:52:34.813Z,6.40
2019-04-16T04:55:02.629Z,6.30
2019-04-16T04:57:31.878Z,6.40
2019-04-16T04:59:59.790Z,6.40
2019-04-16T05:02:27.555Z,6.50
2019-04-16T05:05:00.845Z,6.50
2019-04-16T05:07:30.153Z,6.40
2019-04-16T05:09:57.917Z,6.40
2019-04-16T05:12:25.590Z,6.40
2019-04-16T05:14:57.547Z,6.40
2019-04-16T05:17:26.007Z,6.50
2019-04-16T05:19:55.378Z,6.50
2019-04-16T05:22:23.113Z,6.50
2019-04-16T05:24:51.038Z,6.60
2019-04-16T05:27:18.826Z,6.70
2019-04-16T05:29:48.919Z,6.60
2019-04-16T05:32:16.120Z,6.60
2019-04-16T05:34:43.761Z,6.70
2019-04-16T05:37:11.453Z,6.70
2019-04-16T05:39:39.196Z,6.70
2019-04-16T05:42:06.884Z,6.70
2019-04-16T05:44:34.728Z,6.60
2019-04-16T05:47:02.500Z,6.70
2019-04-16T05:49:30.244Z,6.70
2019-04-16T05:52:02.909Z,6.80
2019-04-16T05:54:52.801Z,6.90
2019-04-16T05:57:27.729Z,7.00
2019-04-16T05:59:57.169Z,7.10
2019-04-16T06:02:34.506Z,7.20
2019-04-16T06:05:04.693Z,7.30
2019-04-16T06:07:32.517Z,7.30
2019-04-16T06:10:00.739Z,7.40
2019-04-16T06:12:40.056Z,7.50
2019-04-16T06:15:24.489Z,7.50
2019-04-16T06:18:21.958Z,7.50
2019-04-16T06:21:04.340Z,7.60
2019-04-16T06:23:51.408Z,7.60
2019-04-16T06:26:37.874Z,7.60
2019-04-16T06:29:17.254Z,7.80
2019-04-16T06:32:03.327Z,7.80
2019-04-16T06:34:59.860Z,7.80
2019-04-16T06:37:57.830Z,7.80
2019-04-16T06:40:49.676Z,7.90
2019-04-16T06:43:26.200Z,8.10
2019-04-16T06:46:28.931Z,8.30
2019-04-16T06:49:17.656Z,8.40
2019-04-16T06:52:25.634Z,8.50
2019-04-16T06:55:13.803Z,8.50
2019-04-16T06:58:05.963Z,8.60
2019-04-16T07:01:08.357Z,8.70
2019-04-16T07:04:15.775Z,8.90
2019-04-16T07:07:14.035Z,8.90
2019-04-16T07:09:49.185Z,9.00
2019-04-16T07:12:23.512Z,9.10
2019-04-16T07:14:51.295Z,9.30
2019-04-16T07:17:19.068Z,9.40
2019-04-16T07:19:46.729Z,9.60
2019-04-16T07:22:14.452Z,9.70
2019-04-16T07:24:42.440Z,9.80
2019-04-16T07:28:01.538Z,9.80
2019-04-16T07:30:48.960Z,9.80
2019-04-16T07:33:36.750Z,9.90
2019-04-16T07:36:27.184Z,10.00
2019-04-16T07:39:13.197Z,10.10
2019-04-16T07:43:47.020Z,10.20
2019-04-16T07:44:48.077Z,10.30
2019-04-16T07:47:35.230Z,10.30
2019-04-16T07:50:18.650Z,10.50
2019-04-16T07:53:14.391Z,10.60
2019-04-16T07:55:53.265Z,10.80
2019-04-16T07:58:22.621Z,10.90
2019-04-16T08:00:50.490Z,11.00
2019-04-16T08:03:18.202Z,11.10
2019-04-16T08:05:46.034Z,11.10
2019-04-16T08:08:13.899Z,11.30
2019-04-16T08:10:41.681Z,11.40
2019-04-16T08:13:18.127Z,11.50
2019-04-16T08:15:46.299Z,11.60
2019-04-16T08:18:14.710Z,11.80
2019-04-16T08:20:42.766Z,11.90
2019-04-16T08:23:52.898Z,12.00
2019-04-16T08:26:20.665Z,12.10
2019-04-16T08:28:48.542Z,12.20
2019-04-16T08:31:22.934Z,12.30
2019-04-16T08:33:52.197Z,12.40
2019-04-16T08:36:19.846Z,12.50
2019-04-16T08:38:47.548Z,12.50
2019-04-16T08:41:19.697Z,12.70
2019-04-16T08:43:44.877Z,12.80
2019-04-16T08:46:12.716Z,12.80
2019-04-16T08:48:40.421Z,12.90
2019-04-16T08:51:08.287Z,13.00
2019-04-16T08:53:36.109Z,13.10
2019-04-16T08:56:03.993Z,13.20
2019-04-16T08:58:31.711Z,13.50
2019-04-16T09:00:59.525Z,13.70
2019-04-16T09:03:30.064Z,13.90
2019-04-16T09:05:57.207Z,14.00
2019-04-16T09:08:33.128Z,14.20
2019-04-16T09:11:03.351Z,14.30
2019-04-16T09:13:35.713Z,14.60
2019-04-16T09:16:05.528Z,14.80
2019-04-16T09:18:51.566Z,15.00
2019-04-16T09:21:20.942Z,15.30
2019-04-16T09:24:09.338Z,15.50
2019-04-16T09:26:43.925Z,15.70
2019-04-16T09:29:39.157Z,15.90
2019-04-16T09:32:32.977Z,16.00
2019-04-16T09:35:18.367Z,16.20
2019-04-16T09:38:13.081Z,16.50
2019-04-16T09:41:00.613Z,16.50
2019-04-16T09:43:30.249Z,16.70
2019-04-16T09:46:10.256Z,16.90
2019-04-16T09:48:34.352Z,17.00
2019-04-16T09:50:59.030Z,17.10
2019-04-16T09:53:33.396Z,17.20
2019-04-16T09:55:58.145Z,17.30
2019-04-16T09:58:27.588Z,17.30
2019-04-16T10:01:04.158Z,17.10
2019-04-16T10:03:35.674Z,16.90
2019-04-16T10:06:05.737Z,16.80
2019-04-16T10:08:33.827Z,16.70
2019-04-16T10:11:05.801Z,16.80
2019-04-16T10:13:35.731Z,16.80
2019-04-16T10:16:01.047Z,16.80
2019-04-16T10:18:28.945Z,16.80
2019-04-16T10:20:56.659Z,16.80
2019-04-16T10:23:42.843Z,16.80
2019-04-16T10:26:12.181Z,16.80
2019-04-16T10:28:40.355Z,16.80
2019-04-16T10:31:11.061Z,16.80
2019-04-16T10:33:40.413Z,16.80
2019-04-16T10:36:08.112Z,16.90
2019-04-16T10:38:42.124Z,16.80
2019-04-16T10:41:31.014Z,16.90
2019-04-16T10:44:15.137Z,16.90
2019-04-16T10:47:03.980Z,17.00
2019-04-16T10:49:45.181Z,17.00
2019-04-16T10:52:32.855Z,17.20
2019-04-16T10:55:24.840Z,17.20
2019-04-16T10:58:13.749Z,17.30
2019-04-16T11:01:17.708Z,17.50
2019-04-16T11:04:07.842Z,17.70
2019-04-16T11:06:41.013Z,17.90
2019-04-16T11:09:10.724Z,18.00
2019-04-16T11:11:38.740Z,18.20
2019-04-16T11:14:06.724Z,18.30
2019-04-16T11:16:36.062Z,18.30
2019-04-16T11:19:05.463Z,18.30
2019-04-16T11:21:33.320Z,18.30
2019-04-16T11:24:01.366Z,18.40
2019-04-16T11:26:29.649Z,18.60
2019-04-16T11:28:57.563Z,18.80
2019-04-16T11:31:25.949Z,18.90
2019-04-16T11:33:53.809Z,19.00
2019-04-16T11:36:24.490Z,19.20
2019-04-16T11:38:52.361Z,19.10
2019-04-16T11:41:20.259Z,19.20
2019-04-16T11:43:48.052Z,19.30
2019-04-16T11:46:16.102Z,19.50
2019-04-16T11:48:47.339Z,19.70
2019-04-16T11:51:16.063Z,19.90
2019-04-16T11:53:44.006Z,20.00
2019-04-16T11:56:12.053Z,20.00
2019-04-16T11:58:44.142Z,20.10
2019-04-16T12:01:36.352Z,20.30
2019-04-16T12:04:25.273Z,20.40
2019-04-16T12:07:13.089Z,20.30
2019-04-16T12:10:17.306Z,19.90
2019-04-16T12:13:06.260Z,20.00
2019-04-16T12:16:05.067Z,19.90
2019-04-16T12:18:47.146Z,19.90
2019-04-16T12:21:34.905Z,19.80
2019-04-16T12:24:32.793Z,19.60
2019-04-16T12:27:24.785Z,19.40
2019-04-16T12:30:31.824Z,19.20
2019-04-16T12:33:09.001Z,18.90
2019-04-16T12:35:51.213Z,18.80
2019-04-16T12:38:33.866Z,18.70
2019-04-16T12:41:21.137Z,18.60
2019-04-16T12:43:56.399Z,18.50
2019-04-16T12:46:51.238Z,18.30
2019-04-16T12:49:44.801Z,18.20
2019-04-16T12:52:48.779Z,18.10
2019-04-16T12:55:40.242Z,18.10
2019-04-16T12:58:25.722Z,18.00
2019-04-16T13:01:33.189Z,18.00
2019-04-16T13:04:07.022Z,17.90
2019-04-16T13:07:11.362Z,17.80
2019-04-16T13:10:03.116Z,17.60
2019-04-16T13:12:39.542Z,17.70
2019-04-16T13:15:25.443Z,17.50
2019-04-16T13:18:29.674Z,17.40
2019-04-16T13:21:18.485Z,17.30
2019-04-16T13:24:00.743Z,17.40
2019-04-16T13:26:33.077Z,17.30
2019-04-16T13:29:06.460Z,17.30
2019-04-16T13:31:36.385Z,17.30
2019-04-16T13:34:05.398Z,17.30
2019-04-16T13:36:33.126Z,17.50
2019-04-16T13:39:15.288Z,17.60
2019-04-16T13:41:44.609Z,17.60
2019-04-16T13:44:16.933Z,17.70
2019-04-16T13:46:44.626Z,17.80
2019-04-16T13:49:31.401Z,17.90
2019-04-16T13:51:57.661Z,18.00
2019-04-16T13:54:35.138Z,18.00
2019-04-16T13:57:11.318Z,18.20
2019-04-16T14:00:04.423Z,18.40
2019-04-16T14:02:36.390Z,18.40
2019-04-16T14:05:09.909Z,18.40
2019-04-16T14:07:36.174Z,18.50
2019-04-16T14:10:04.364Z,18.40
2019-04-16T14:12:41.659Z,18.30
2019-04-16T14:15:05.786Z,18.30
2019-04-16T14:17:36.528Z,18.30
2019-04-16T14:20:04.727Z,18.30
2019-04-16T14:22:34.121Z,18.40
2019-04-16T14:25:01.933Z,18.40
2019-04-16T14:27:31.312Z,18.40
2019-04-16T14:29:59.904Z,18.40
2019-04-16T14:32:28.989Z,18.30
2019-04-16T14:35:01.917Z,18.30
2019-04-16T14:37:31.302Z,18.40
2019-04-16T14:40:13.129Z,18.60
2019-04-16T14:42:42.432Z,18.80
2019-04-16T14:45:49.755Z,19.00
2019-04-16T14:48:08.897Z,19.10
2019-04-16T14:50:35.102Z,19.10
2019-04-16T14:53:02.955Z,19.10
2019-04-16T14:55:59.862Z,19.10
2019-04-16T14:58:41.073Z,19.30
2019-04-16T15:01:28.465Z,19.30
2019-04-16T15:04:20.183Z,19.50
2019-04-16T15:07:14.851Z,19.60
2019-04-16T15:10:03.677Z,19.60
2019-04-16T15:12:43.485Z,19.50
2019-04-16T15:15:30.671Z,19.30
2019-04-16T15:18:05.191Z,19.20
2019-04-16T15:21:02.773Z,19.10
2019-04-16T15:24:01.290Z,19.10
2019-04-16T15:26:52.316Z,19.10
2019-04-16T15:29:29.979Z,18.90
2019-04-16T15:32:28.225Z,18.90
2019-04-16T15:34:57.606Z,18.80
2019-04-16T15:37:57.921Z,18.70
2019-04-16T15:40:31.331Z,18.70
2019-04-16T15:43:26.263Z,18.70
2019-04-16T15:46:28.501Z,18.80
2019-04-16T15:49:06.250Z,18.70
2019-04-16T15:51:50.867Z,18.60
2019-04-16T15:54:36.986Z,18.50
2019-04-16T15:57:24.704Z,18.50
2019-04-16T16:00:00.796Z,18.60
2019-04-16T16:02:53.075Z,18.70
2019-04-16T16:05:26.852Z,18.50
2019-04-16T16:08:21.732Z,18.50
2019-04-16T16:10:54.219Z,18.60
2019-04-16T16:13:26.492Z,18.70
2019-04-16T16:15:53.426Z,18.60
2019-04-16T16:18:21.283Z,18.60
2019-04-16T16:20:49.615Z,18.40
2019-04-16T16:23:17.460Z,18.30
2019-04-16T16:25:45.333Z,18.10
2019-04-16T16:28:13.199Z,18.10
2019-04-16T16:30:41.053Z,17.90
2019-04-16T16:33:08.870Z,17.90
2019-04-16T16:35:36.681Z,17.90
2019-04-16T16:38:04.617Z,18.00
2019-04-16T16:40:32.371Z,18.00
2019-04-16T16:43:00.088Z,17.90
2019-04-16T16:45:59.854Z,17.80
2019-04-16T16:48:29.249Z,17.70
2019-04-16T16:50:57.288Z,17.60
2019-04-16T16:53:41.480Z,17.60
2019-04-16T16:56:21.125Z,17.60
2019-04-16T16:58:57.673Z,17.70
2019-04-16T17:01:58.988Z,17.70
2019-04-16T17:04:31.391Z,17.70
2019-04-16T17:07:00.957Z,17.70
2019-04-16T17:09:31.189Z,17.70
2019-04-16T17:11:59.814Z,17.70
2019-04-16T17:14:27.797Z,17.80
2019-04-16T17:16:55.575Z,17.80
2019-04-16T17:19:23.539Z,17.90
2019-04-16T17:21:51.262Z,17.90
2019-04-16T17:24:19.048Z,17.90
2019-04-16T17:26:46.994Z,18.00
2019-04-16T17:29:16.448Z,18.00
2019-04-16T17:31:44.234Z,18.10
2019-04-16T17:34:12.124Z,18.10
2019-04-16T17:36:39.959Z,18.00
2019-04-16T17:39:10.492Z,18.00
2019-04-16T17:41:44.312Z,18.10
2019-04-16T17:44:31.951Z,18.10
2019-04-16T17:47:32.522Z,18.10
2019-04-16T17:50:03.990Z,18.10
2019-04-16T17:52:51.326Z,18.00
2019-04-16T17:55:43.599Z,17.80
2019-04-16T17:58:18.529Z,17.60
2019-04-16T18:01:22.595Z,17.50
2019-04-16T18:04:11.628Z,17.40
2019-04-16T18:07:03.790Z,17.40
2019-04-16T18:09:39.757Z,17.30
2019-04-16T18:12:19.808Z,17.30
2019-04-16T18:15:18.744Z,17.30
2019-04-16T18:18:01.117Z,17.20
2019-04-16T18:20:57.300Z,17.20
2019-04-16T18:23:27.847Z,17.20
2019-04-16T18:26:15.316Z,17.20
2019-04-16T18:29:04.263Z,17.10
2019-04-16T18:32:02.457Z,17.10
2019-04-16T18:34:40.225Z,17.10
2019-04-16T18:37:38.243Z,17.10
2019-04-16T18:40:45.176Z,16.80
2019-04-16T18:43:32.670Z,16.60
2019-04-16T18:46:19.932Z,16.20
2019-04-16T18:48:54.304Z,16.10
2019-04-16T18:51:23.990Z,15.90
2019-04-16T18:53:52.237Z,15.90
2019-04-16T18:56:20.107Z,15.80
2019-04-16T18:58:48.008Z,15.70
2019-04-16T19:01:24.826Z,15.70
2019-04-16T19:03:53.732Z,15.60
2019-04-16T19:06:22.594Z,15.50
2019-04-16T19:08:50.500Z,15.50
2019-04-16T19:11:20.329Z,15.40
2019-04-16T19:13:48.172Z,15.40
2019-04-16T19:16:16.005Z,15.40
2019-04-16T19:18:44.007Z,15.30
2019-04-16T19:21:11.938Z,15.20
2019-04-16T19:23:39.974Z,15.10
2019-04-16T19:26:07.801Z,15.00
2019-04-16T19:28:36.253Z,14.90
2019-04-16T19:31:05.379Z,14.90
2019-04-16T19:33:37.995Z,14.70
2019-04-16T19:36:03.210Z,14.50
2019-04-16T19:38:31.012Z,14.40
2019-04-16T19:40:58.998Z,14.30
2019-04-16T19:43:28.451Z,14.20
2019-04-16T19:45:56.803Z,14.20
2019-04-16T19:48:35.360Z,14.20
2019-04-16T19:50:54.447Z,14.20
2019-04-16T19:53:22.398Z,14.10
2019-04-16T19:55:50.278Z,14.10
2019-04-16T19:58:18.267Z,14.10
2019-04-16T20:00:46.134Z,14.10
2019-04-16T20:03:14.050Z,14.20
2019-04-16T20:05:42.405Z,14.20
2019-04-16T20:08:10.463Z,14.30
2019-04-16T20:10:38.357Z,14.20
2019-04-16T20:13:06.178Z,14.20
2019-04-16T20:15:33.983Z,14.10
2019-04-16T20:18:01.922Z,14.10
2019-04-16T20:20:29.887Z,14.00
2019-04-16T20:22:57.865Z,14.00
2019-04-16T20:25:25.651Z,13.90
2019-04-16T20:27:53.704Z,14.00
2019-04-16T20:30:24.284Z,13.90
2019-04-16T20:32:51.476Z,13.90
2019-04-16T20:35:19.250Z,13.80
2019-04-16T20:37:47.237Z,13.80
2019-04-16T20:40:17.738Z,13.70
2019-04-16T20:42:44.805Z,13.80
2019-04-16T20:45:12.644Z,13.70
2019-04-16T20:47:40.655Z,13.60
2019-04-16T20:50:08.602Z,13.60
2019-04-16T20:52:36.921Z,13.60
2019-04-16T20:55:04.673Z,13.60
2019-04-16T20:57:32.822Z,13.50
2019-04-16T21:00:00.683Z,13.50
2019-04-16T21:02:32.093Z,13.50
2019-04-16T21:05:03.036Z,13.60
2019-04-16T21:07:31.054Z,13.60
2019-04-16T21:10:02.510Z,13.70
2019-04-16T21:12:29.653Z,13.80
2019-04-16T21:14:57.450Z,13.90
2019-04-16T21:17:25.252Z,14.00
2019-04-16T21:19:53.108Z,14.00
2019-04-16T21:22:20.817Z,14.00
2019-04-16T21:24:48.604Z,13.90
2019-04-16T21:27:16.434Z,13.90
2019-04-16T21:29:44.726Z,14.00
2019-04-16T21:32:31.440Z,14.00
2019-04-16T21:35:07.428Z,14.00
2019-04-16T21:37:55.014Z,14.00
2019-04-16T21:40:24.386Z,14.10
2019-04-16T21:42:52.174Z,14.20
2019-04-16T21:45:20.041Z,14.10
2019-04-16T21:47:47.831Z,14.00
2019-04-16T21:50:16.430Z,14.00
2019-04-16T21:52:44.861Z,14.00
2019-04-16T21:55:12.639Z,14.20
2019-04-16T21:57:42.884Z,14.30
2019-04-16T22:00:30.679Z,14.20
2019-04-16T22:02:59.625Z,14.30
2019-04-16T22:05:28.628Z,14.10
2019-04-16T22:07:57.052Z,14.10
2019-04-16T22:10:26.085Z,14.00
2019-04-16T22:12:53.819Z,14.10
2019-04-16T22:15:25.148Z,14.00
2019-04-16T22:17:51.304Z,14.00
2019-04-16T22:20:19.212Z,14.00
2019-04-16T22:22:47.473Z,14.10
2019-04-16T22:25:15.505Z,14.00
2019-04-16T22:27:43.183Z,13.80
2019-04-16T22:30:11.080Z,13.70
2019-04-16T22:32:38.753Z,13.70
2019-04-16T22:35:06.733Z,13.70
2019-04-16T22:37:34.518Z,13.70
2019-04-16T22:40:16.074Z,13.60
2019-04-16T22:43:05.213Z,13.50
2019-04-16T22:45:46.149Z,13.40
2019-04-16T22:48:15.512Z,13.30
2019-04-16T22:50:43.173Z,13.30
2019-04-16T22:53:10.879Z,13.20
2019-04-16T22:55:42.364Z,13.20
2019-04-16T22:58:22.294Z,13.20
2019-04-16T23:00:52.205Z,13.20
2019-04-16T23:03:21.510Z,13.20
2019-04-16T23:05:49.289Z,13.30
2019-04-16T23:08:17.077Z,13.30
2019-04-16T23:10:44.941Z,13.20
2019-04-16T23:13:12.615Z,13.30
2019-04-16T23:15:41.349Z,13.30
2019-04-16T23:18:09.289Z,13.40
2019-04-16T23:20:38.714Z,13.50
2019-04-16T23:23:08.053Z,13.50
2019-04-16T23:25:35.725Z,13.50
2019-04-16T23:28:03.716Z,13.50
2019-04-16T23:30:31.587Z,13.40
2019-04-16T23:33:01.323Z,13.50
2019-04-16T23:35:28.977Z,13.60
2019-04-16T23:37:59.510Z,13.60
2019-04-16T23:40:26.331Z,13.60
2019-04-16T23:43:10.941Z,13.50
2019-04-16T23:46:12.033Z,13.60
2019-04-16T23:48:48.486Z,13.60
2019-04-16T23:51:28.749Z,13.70
2019-04-16T23:54:16.138Z,13.70
2019-04-16T23:56:53.236Z,13.70
2019-04-16T23:59:32.619Z,13.70
